Главная страница
METAR-TAF:

METAR-TAF

Аэропорты :

Пермь, Россия

широта: 58-00N, долгота: 056-15E, высота над уровнем моря: 170 м

Текущие метеонаблюдения

Эта сводка был подготовлена 37 минут назад, в 00:30 UTC
Ветер 10 Узел от западный-юго-западный
Температура -9°C
Влажность 67%
Давление 1041 hPa
Видимость 10 км и более
Нет облачности ниже 1500 м, и нет кучево-дождевой облачности

METAR: USPP 130030Z 25005MPS CAVOK M09/M14 Q1041 R21/090060 NOSIG RMK QFE770

Время: 06:07 (01:07 UTC)

Прогноз

Эта сводка был подготовлена 2 часа и 9 минут назад, в 22:58 UTC
Прогноз действительный с 13-го 00 UTC до 13-го 24 UTC
Ветер 14 Узел от западный-юго-западный с порывами до 25 Узел
Видимость 10 км и более
Нет облачности ниже 1500 м, и нет кучево-дождевой облачности

TAF: USPP 122258Z 1300/1324 24007G13MPS CAVOK

Метеонаблюдения и прогнозы для более 4000 аэропортов (сводки METAR и TAF).

Имеющиеся станции представлены на карте желтыми и красными точками.

Чтобы увидеть название станции, наведите на нее мышь.

Затем щелкните, чтобы увидеть метеонаблюдения и метеопрогнозы.

Управление картой: чтобы увеличить масштаб, щелкните зеленые кнопки с черным крестиком; чтобы уменьшить масштаб, щелкните зеленую кнопку с тире; для просмотра соседних карт щелкайте зеленые стрелки.


METAR-TAF: